Terminal Aerodrome Forecast
Issued by NWS Wilmington, OH

Home | Current Version | Previous Version | Text Only | Print | Product List | Glossary On
Versions: 1 2 3 4 5 6 7 8 9 10 11 12 13 14 15 16 17 18 19 20
834
FTUS41 KILN 040542
TAFCMH
TAF
KCMH 040542Z 0406/0506 00000KT P6SM BKN035
     FM041300 11004KT P6SM OVC150
     FM041500 12007KT P6SM OVC090
     FM042000 12007KT P6SM OVC050
     FM042300 12007KT 4SM -RA BR OVC025
     FM050100 12007KT 4SM -RA BR OVC015
     FM050300 16006KT 4SM -RA BR OVC006=

USA.gov is the U.S. government's official web portal to all federal, state and local government web resources and services.